Pino Ladra — ECGJ — position and weather

sailwx.info

Track history (hours):
 
Tides and Currents Weather Stations Pressure Air Temp Water Temp Dewpoint Dewpoint Depression Visibility Wind Speed Wind Dir Waves Ship Positions

Pino Ladra

Last reported at 2017-Sep-27 17:47 UTC. Time now 2017-Oct-18 22:16 UTC.
Position N 43°46' W 007°25'.
Warning: this ship's position is 21 days out of date.

Length 32 m; draft 7.4 m.

Type: Fishing. MMSI: 224134550.

Date/timePositionNaut miles runAvg speedWind from/ knotsBaromVisibWave heightAir tempDewpointWater temp
2017-Sep-27 17:47N 43°46' W 007°25'310.3
2017-Sep-27 17:29N 43°48' W 007°28'4 7.7
2017-Sep-27 16:58N 43°52' W 007°31'1 2.2
2017-Sep-27 16:30N 43°52' W 007°29'2 3.2
2017-Sep-27 16:00N 43°53' W 007°28'2 3.2
2017-Sep-27 15:23N 43°55' W 007°26'4 0.9
2017-Sep-27 11:01N 43°57' W 007°31'0 3.3
2017-Sep-27 10:56N 43°57' W 007°30'2 4.5
2017-Sep-27 10:30N 43°55' W 007°29'3 2.5
2017-Sep-27 09:11N 43°52' W 007°31'1 3.3
2017-Sep-27 08:59N 43°52' W 007°30'2 3.3
2017-Sep-27 08:30N 43°50' W 007°29'2 3.2
2017-Sep-27 08:00N 43°49' W 007°27'2 3.5
2017-Sep-27 07:20N 43°48' W 007°25'0 0.7
2017-Sep-27 06:47N 43°47' W 007°25'2 3.4
2017-Sep-27 06:17N 43°47' W 007°23'5 0.3
2017-Sep-26 10:22N 43°49' W 007°30'1 3.3
2017-Sep-26 09:58N 43°49' W 007°28'5 3.2
2017-Sep-26 08:31N 43°46' W 007°23'1 0.1
2017-Sep-25 18:41N 43°47' W 007°24'3 9.5
2017-Sep-25 18:24N 43°49' W 007°25'4 9.9
2017-Sep-25 17:59N 43°53' W 007°28'15 2.2
2017-Sep-25 11:06N 44°01' W 007°46'12 1.1
2017-Sep-24 23:37N 43°53' W 007°33'2 9.7
2017-Sep-24 23:26N 43°51' W 007°33'4 9.4
2017-Sep-24 23:00N 43°48' W 007°34'5 9.7
2017-Sep-24 22:30N 43°43' W 007°36'2 4.2
2017-Sep-24 22:00N 43°41' W 007°36'0 0.0
2017-Sep-24 21:30N 43°41' W 007°36'0 0.0
2017-Sep-24 21:00N 43°41' W 007°36'0 0.0
2017-Sep-24 20:30N 43°41' W 007°36'  
Track history (hours):
 
Tides and Currents Weather Stations Pressure Air Temp Water Temp Dewpoint Dewpoint Depression Visibility Wind Speed Wind Dir Waves Ship Positions

Pino Ladra

Last reported at 2017-Sep-27 17:47 UTC. Time now 2017-Oct-18 22:16 UTC.
Position N 43°46' W 007°25'.
Warning: this ship's position is 21 days out of date.

Length 32 m; draft 7.4 m.

Type: Fishing. MMSI: 224134550.

Date/timePositionNaut miles runAvg speedWind from/ knotsBaromVisibWave heightAir tempDewpointWater temp
2017-Sep-27 17:47N 43°46' W 007°25'310.3
2017-Sep-27 17:29N 43°48' W 007°28'4 7.7
2017-Sep-27 16:58N 43°52' W 007°31'1 2.2
2017-Sep-27 16:30N 43°52' W 007°29'2 3.2
2017-Sep-27 16:00N 43°53' W 007°28'2 3.2
2017-Sep-27 15:23N 43°55' W 007°26'4 0.9
2017-Sep-27 11:01N 43°57' W 007°31'0 3.3
2017-Sep-27 10:56N 43°57' W 007°30'2 4.5
2017-Sep-27 10:30N 43°55' W 007°29'3 2.5
2017-Sep-27 09:11N 43°52' W 007°31'1 3.3
2017-Sep-27 08:59N 43°52' W 007°30'2 3.3
2017-Sep-27 08:30N 43°50' W 007°29'2 3.2
2017-Sep-27 08:00N 43°49' W 007°27'2 3.5
2017-Sep-27 07:20N 43°48' W 007°25'0 0.7
2017-Sep-27 06:47N 43°47' W 007°25'2 3.4
2017-Sep-27 06:17N 43°47' W 007°23'5 0.3
2017-Sep-26 10:22N 43°49' W 007°30'1 3.3
2017-Sep-26 09:58N 43°49' W 007°28'5 3.2
2017-Sep-26 08:31N 43°46' W 007°23'1 0.1
2017-Sep-25 18:41N 43°47' W 007°24'3 9.5
2017-Sep-25 18:24N 43°49' W 007°25'4 9.9
2017-Sep-25 17:59N 43°53' W 007°28'15 2.2
2017-Sep-25 11:06N 44°01' W 007°46'12 1.1
2017-Sep-24 23:37N 43°53' W 007°33'2 9.7
2017-Sep-24 23:26N 43°51' W 007°33'4 9.4
2017-Sep-24 23:00N 43°48' W 007°34'5 9.7
2017-Sep-24 22:30N 43°43' W 007°36'2 4.2
2017-Sep-24 22:00N 43°41' W 007°36'0 0.0
2017-Sep-24 21:30N 43°41' W 007°36'0 0.0
2017-Sep-24 21:00N 43°41' W 007°36'0 0.0
2017-Sep-24 20:30N 43°41' W 007°36'  

Dump ship's entire track history